Time;durP1;ratioP1;P1;durP2;ratioP2;P2;SDS_P1;SDS_P2;PMS_P1;PMS_P2;Temp;Humidity;BMP_temperature;BMP_pressure;BME280_temperature;BME280_humidity;BME280_pressure;Samples;Min_cycle;Max_cycle;Signal;HPM_P1;HPM_P2
2022/08/18 00:00:32;;;;;;;38.47;34.58;;;;;;;19.95;71.83;99950.75;5072629;28;20059;-65
2022/08/18 00:03:05;;;;;;;38.20;34.67;;;;;;;19.95;71.73;99945.94;5071719;28;20524;-65
2022/08/18 00:05:32;;;;;;;38.88;34.97;;;;;;;19.93;71.88;99941.84;5081464;28;20048;-65
2022/08/18 00:08:00;;;;;;;37.45;33.88;;;;;;;19.92;71.88;99945.91;5091444;28;20052;-65
2022/08/18 00:10:28;;;;;;;37.47;33.67;;;;;;;19.89;71.96;99961.63;5072402;28;20051;-65
2022/08/18 00:12:55;;;;;;;40.10;36.03;;;;;;;19.86;71.99;99949.09;5073020;28;20401;-65
2022/08/18 00:15:24;;;;;;;35.72;32.38;;;;;;;19.84;71.88;99950.66;5080494;28;20044;-65
2022/08/18 00:17:52;;;;;;;38.70;34.90;;;;;;;19.82;71.96;99953.91;5092997;28;20047;-65
2022/08/18 00:20:23;;;;;;;39.38;35.70;;;;;;;19.76;71.96;99951.81;5073906;28;20055;-65
2022/08/18 00:22:52;;;;;;;38.33;34.72;;;;;;;19.72;72.18;99948.97;5073043;28;20049;-66
2022/08/18 00:25:21;;;;;;;37.47;33.83;;;;;;;19.67;72.07;99941.63;5079857;28;20051;-65
2022/08/18 00:27:48;;;;;;;39.20;35.40;;;;;;;19.65;72.16;99931.91;5093134;28;20478;-65
2022/08/18 00:30:19;;;;;;;40.05;36.15;;;;;;;19.55;72.76;99936.28;5076806;28;20063;-65
2022/08/18 00:32:52;;;;;;;38.15;34.35;;;;;;;19.56;72.39;99931.41;5072695;28;20049;-65
2022/08/18 00:35:24;;;;;;;39.05;35.03;;;;;;;19.54;72.77;99928.97;5078043;28;20044;-65
2022/08/18 00:37:53;;;;;;;42.67;38.45;;;;;;;19.54;72.65;99931.81;5066383;28;20367;-65
2022/08/18 00:40:27;;;;;;;37.92;34.28;;;;;;;19.51;72.54;99938.25;5065349;28;20048;-65
2022/08/18 00:43:00;;;;;;;37.35;33.72;;;;;;;19.39;72.66;99933.69;5072650;28;20048;-65
2022/08/18 00:45:31;;;;;;;36.80;33.00;;;;;;;19.34;72.71;99938.84;5079671;28;20063;-65
2022/08/18 00:48:00;;;;;;;36.72;33.05;;;;;;;19.31;72.80;99939.63;5092708;28;20056;-65
2022/08/18 00:50:34;;;;;;;39.13;35.33;;;;;;;19.26;72.94;99938.78;5080433;28;20056;-65
2022/08/18 00:53:11;;;;;;;37.95;34.05;;;;;;;19.25;72.93;99930.69;5072278;28;20057;-65
2022/08/18 00:55:40;;;;;;;39.58;35.58;;;;;;;19.21;73.30;99935.50;5074842;28;20052;-65
2022/08/18 00:58:10;;;;;;;41.13;37.13;;;;;;;19.22;73.22;99931.47;5092712;28;20047;-65
2022/08/18 01:00:38;;;;;;;37.63;33.83;;;;;;;19.18;73.27;99931.44;5079135;28;20052;-65
2022/08/18 01:03:15;;;;;;;38.97;35.15;;;;;;;19.17;73.46;99934.63;5072006;28;20052;-65
2022/08/18 01:05:47;;;;;;;35.75;32.30;;;;;;;19.16;73.50;99927.38;5076677;28;20512;-65
2022/08/18 01:08:17;;;;;;;36.38;32.78;;;;;;;19.06;73.22;99929.69;5072156;28;20059;-65
2022/08/18 01:10:45;;;;;;;37.50;33.83;;;;;;;19.09;73.12;99921.63;5072314;28;20049;-65
2022/08/18 01:13:12;;;;;;;36.63;32.70;;;;;;;19.05;73.31;99916.78;5072091;28;20477;-65
2022/08/18 01:15:40;;;;;;;37.50;33.40;;;;;;;19.03;73.35;99919.16;5081695;28;20420;-65
2022/08/18 01:23:52;;;;;;;39.20;35.33;;;;;;;18.88;73.84;99910.91;5084686;28;20060;-65
2022/08/18 01:26:20;;;;;;;36.10;32.50;;;;;;;18.86;73.59;99914.13;5096401;28;20488;-65
2022/08/18 01:28:49;;;;;;;38.80;34.78;;;;;;;18.84;73.98;99913.72;5098722;28;20055;-65
2022/08/18 01:31:33;;;;;;;40.47;36.35;;;;;;;18.75;74.55;99924.44;5091745;28;20488;-65
2022/08/18 01:34:00;;;;;;;39.45;35.45;;;;;;;18.74;74.83;99922.81;5078657;28;20489;-65
2022/08/18 01:36:28;;;;;;;39.17;35.15;;;;;;;18.71;74.84;99924.41;5096668;28;20056;-65
2022/08/18 01:38:57;;;;;;;39.70;35.58;;;;;;;18.69;74.96;99928.78;5098900;28;20056;-65
2022/08/18 01:41:25;;;;;;;37.95;33.95;;;;;;;18.67;74.91;99934.81;5093280;28;20477;-65
2022/08/18 01:43:52;;;;;;;42.30;38.00;;;;;;;18.65;74.70;99942.84;5078297;28;20056;-65
2022/08/18 01:46:22;;;;;;;38.30;34.17;;;;;;;18.66;74.59;99934.00;5091178;28;20048;-65
2022/08/18 01:48:49;;;;;;;41.65;37.35;;;;;;;18.52;75.44;99939.47;5078265;28;20056;-65
2022/08/18 01:51:18;;;;;;;40.20;36.17;;;;;;;18.53;75.36;99935.44;5078173;28;20045;-63
2022/08/18 01:53:47;;;;;;;40.47;36.28;;;;;;;18.53;75.43;99934.63;5078116;28;20057;-64
2022/08/18 01:56:17;;;;;;;40.08;35.90;;;;;;;18.53;75.26;99932.63;5094475;28;20055;-65
2022/08/18 01:58:46;;;;;;;40.40;36.13;;;;;;;18.53;74.84;99935.44;5078520;28;20071;-65
2022/08/18 02:01:14;;;;;;;40.22;35.97;;;;;;;18.49;75.24;99945.84;5078088;28;20049;-65
2022/08/18 02:03:47;;;;;;;42.08;37.78;;;;;;;18.52;75.17;99949.91;5094256;28;20504;-65
2022/08/18 02:06:17;;;;;;;42.83;38.38;;;;;;;18.51;75.19;99954.75;5098427;28;20059;-65
2022/08/18 02:08:45;;;;;;;47.90;42.65;;;;;;;18.52;75.41;99947.94;5080851;28;20056;-66
2022/08/18 02:11:13;;;;;;;40.95;36.63;;;;;;;18.51;75.54;99942.66;5077779;28;20048;-65
2022/08/18 02:13:41;;;;;;;38.30;34.25;;;;;;;18.54;75.40;99936.25;5074935;28;20071;-65
2022/08/18 02:16:09;;;;;;;40.88;36.63;;;;;;;18.48;75.83;99932.13;5078220;28;20052;-60
2022/08/18 02:18:41;;;;;;;40.13;36.05;;;;;;;18.46;75.88;99936.16;5077818;28;20052;-60
2022/08/18 02:21:11;;;;;;;35.20;31.60;;;;;;;18.46;75.66;99943.81;5078768;28;20512;-60
2022/08/18 02:23:42;;;;;;;39.47;35.63;;;;;;;18.49;75.39;99937.38;5082104;28;20069;-61
2022/08/18 02:26:13;;;;;;;36.65;33.00;;;;;;;18.48;75.34;99932.13;5076333;28;20056;-61
2022/08/18 02:28:43;;;;;;;38.53;34.72;;;;;;;18.46;75.49;99930.50;5075021;28;20048;-61
2022/08/18 02:31:14;;;;;;;36.40;32.47;;;;;;;18.45;75.46;99925.25;5075090;28;20049;-61
2022/08/18 02:33:49;;;;;;;37.08;33.17;;;;;;;18.39;75.17;99927.56;5081091;28;20082;-68
2022/08/18 02:36:20;;;;;;;37.70;33.95;;;;;;;18.40;75.09;99936.88;5075251;28;20049;-66
2022/08/18 02:38:51;;;;;;;38.13;34.20;;;;;;;18.38;75.19;99933.63;5074836;28;20053;-67
2022/08/18 02:41:22;;;;;;;37.85;33.97;;;;;;;18.35;75.21;99925.91;5075279;28;20079;-67
2022/08/18 02:43:56;;;;;;;38.22;34.42;;;;;;;18.33;75.14;99931.09;5083414;28;20052;-68
2022/08/18 02:46:24;;;;;;;41.42;37.22;;;;;;;18.32;75.21;99926.69;5074665;28;20523;-66
2022/08/18 02:49:00;;;;;;;38.17;34.15;;;;;;;18.30;75.09;99934.69;5074999;28;20052;-68
2022/08/18 02:51:32;;;;;;;37.92;33.97;;;;;;;18.28;75.12;99935.06;5074797;28;20052;-68
2022/08/18 02:54:00;;;;;;;36.00;32.25;;;;;;;18.26;74.85;99932.63;5085259;28;20056;-68
2022/08/18 02:56:33;;;;;;;37.80;33.70;;;;;;;18.25;74.85;99938.66;5074633;28;20060;-68
2022/08/18 02:59:07;;;;;;;42.00;37.58;;;;;;;18.22;75.17;99939.41;5075002;28;20059;-67
2022/08/18 03:01:41;;;;;;;39.70;35.45;;;;;;;18.22;75.11;99931.75;5054906;28;20059;-68
2022/08/18 03:04:11;;;;;;;38.38;34.22;;;;;;;18.18;75.10;99922.44;5049548;28;20042;-66
2022/08/18 03:06:43;;;;;;;41.75;37.30;;;;;;;18.17;75.32;99931.28;5034781;28;20060;-65
2022/08/18 03:09:16;;;;;;;40.58;36.17;;;;;;;18.16;75.45;99929.66;5035134;28;20045;-68
2022/08/18 03:11:48;;;;;;;38.25;34.15;;;;;;;18.14;75.36;99927.22;5034062;28;20052;-66
2022/08/18 03:14:18;;;;;;;38.28;34.33;;;;;;;18.13;74.91;99917.13;5034243;28;20057;-67
2022/08/18 03:16:50;;;;;;;39.65;35.10;;;;;;;18.12;74.99;99918.34;5034443;28;20056;-67
2022/08/18 03:19:18;;;;;;;41.97;37.30;;;;;;;18.05;75.09;99926.66;5034857;28;20053;-68
2022/08/18 03:21:48;;;;;;;37.75;33.83;;;;;;;18.06;75.23;99925.50;5033042;28;20054;-64
2022/08/18 03:24:17;;;;;;;40.97;36.75;;;;;;;18.03;75.29;99924.22;5051888;28;20049;-64
2022/08/18 03:26:46;;;;;;;39.47;35.25;;;;;;;18.06;75.06;99928.31;5034118;28;20053;-67
2022/08/18 03:29:14;;;;;;;38.75;34.53;;;;;;;18.02;75.19;99927.44;5033984;28;20057;-66
2022/08/18 03:31:44;;;;;;;42.60;38.00;;;;;;;17.97;75.64;99927.75;5033239;28;21060;-66
2022/08/18 03:34:11;;;;;;;;;;;;;;;17.87;75.73;99936.84;5051540;28;20049;-65
2022/08/18 03:36:40;;;;;;;41.92;37.40;;;;;;;17.85;75.42;99940.84;5036547;28;19924;-65
2022/08/18 03:39:14;;;;;;;40.63;36.42;;;;;;;17.87;75.32;99931.19;5033663;28;20053;-65
2022/08/18 03:41:46;;;;;;;42.70;38.15;;;;;;;17.87;75.29;99934.00;5033063;28;20045;-66
2022/08/18 03:44:15;;;;;;;44.70;40.00;;;;;;;17.87;75.53;99934.00;5051888;28;20410;-66
2022/08/18 03:46:44;;;;;;;46.20;41.28;;;;;;;17.85;75.39;99938.03;5038774;28;20490;-66
2022/08/18 03:49:12;;;;;;;44.42;39.75;;;;;;;17.83;75.71;99937.59;5033898;28;20068;-66
2022/08/18 03:51:45;;;;;;;42.88;37.38;;;;;;;17.82;75.47;99933.13;5031893;28;20053;-64
2022/08/18 03:54:15;;;;;;;42.13;37.65;;;;;;;17.83;75.61;99933.97;5013611;28;20053;-67
2022/08/18 03:56:44;;;;;;;41.50;37.13;;;;;;;17.85;75.64;99935.22;5024760;28;20058;-66
2022/08/18 03:59:16;;;;;;;40.08;35.92;;;;;;;17.90;75.34;99942.53;5033440;28;20053;-65
2022/08/18 04:01:46;;;;;;;42.88;38.38;;;;;;;17.85;76.02;99938.03;5035386;28;20057;-66
2022/08/18 04:04:19;;;;;;;41.42;37.05;;;;;;;17.89;75.99;99943.75;5093397;28;20052;-66
2022/08/18 04:06:50;;;;;;;42.53;37.58;;;;;;;17.97;76.05;99950.28;5083396;28;20055;-66
2022/08/18 04:09:18;;;;;;;42.38;37.88;;;;;;;18.02;76.19;99939.53;5073046;28;20063;-66
2022/08/18 04:11:46;;;;;;;37.30;33.20;;;;;;;18.18;76.35;99935.72;5073424;28;20429;-66
2022/08/18 04:14:17;;;;;;;37.25;33.40;;;;;;;18.32;75.75;99935.94;5092851;28;20470;-66
2022/08/18 04:16:47;;;;;;;37.35;33.55;;;;;;;18.42;75.39;99935.28;5086317;28;20080;-66
2022/08/18 04:19:16;;;;;;;36.72;33.00;;;;;;;18.55;75.03;99938.69;5072834;28;20048;-66
2022/08/18 04:21:45;;;;;;;36.75;32.42;;;;;;;18.64;74.86;99930.75;5081059;28;20060;-66
2022/08/18 04:24:14;;;;;;;38.03;33.83;;;;;;;18.71;74.78;99935.69;5072960;28;20078;-66
2022/08/18 04:26:44;;;;;;;34.95;31.35;;;;;;;18.79;74.30;99937.44;5072179;28;20052;-65
2022/08/18 04:29:12;;;;;;;36.50;32.80;;;;;;;18.82;74.45;99944.31;5072512;28;20063;-66
2022/08/18 04:31:40;;;;;;;38.33;34.40;;;;;;;18.95;74.43;99951.31;5084062;28;20051;-66
2022/08/18 04:34:09;;;;;;;39.08;34.85;;;;;;;19.08;74.10;99948.25;5072406;28;20057;-66
2022/08/18 04:36:37;;;;;;;37.80;33.90;;;;;;;19.17;73.44;99952.41;5072016;28;20075;-66
2022/08/18 04:39:07;;;;;;;40.17;35.80;;;;;;;19.12;73.03;99960.41;5072269;28;20056;-66
2022/08/18 04:41:35;;;;;;;40.35;36.25;;;;;;;19.02;73.45;99959.06;5084607;28;20052;-65
2022/08/18 04:44:06;;;;;;;41.60;37.20;;;;;;;19.00;73.46;99958.63;5074014;28;20056;-66
2022/08/18 04:46:38;;;;;;;38.63;34.63;;;;;;;19.11;73.68;99956.78;5072576;28;20052;-66
2022/08/18 04:49:06;;;;;;;39.15;35.05;;;;;;;19.21;73.64;99956.09;5071790;28;20056;-66
2022/08/18 04:51:43;;;;;;;41.17;36.88;;;;;;;19.31;73.47;99963.03;5073492;28;20040;-66
2022/08/18 04:54:11;;;;;;;38.80;34.67;;;;;;;19.40;73.36;99977.69;5079583;28;20059;-66
2022/08/18 04:56:39;;;;;;;37.95;34.15;;;;;;;19.48;73.24;99976.53;5087986;28;20488;-65
2022/08/18 04:59:09;;;;;;;41.60;37.03;;;;;;;19.53;73.12;99986.69;5077467;28;20056;-65
2022/08/18 05:01:38;;;;;;;38.00;34.10;;;;;;;19.60;73.17;99985.94;5078904;28;20048;-66
2022/08/18 05:04:06;;;;;;;40.90;36.60;;;;;;;19.73;72.77;99986.50;5073484;28;20045;-66
2022/08/18 05:06:33;;;;;;;45.35;40.65;;;;;;;19.79;72.52;99976.47;5057225;28;20048;-66
2022/08/18 05:09:05;;;;;;;44.13;38.33;;;;;;;19.73;73.12;99981.66;5069850;28;20056;-64
2022/08/18 05:11:33;;;;;;;43.05;38.40;;;;;;;19.77;72.79;99981.69;5064986;28;20044;-66
2022/08/18 05:14:02;;;;;;;47.88;42.67;;;;;;;19.67;73.10;99969.88;5066912;28;20065;-47
2022/08/18 05:16:35;;;;;;;45.60;40.13;;;;;;;19.54;73.85;99967.72;5088373;28;20052;-47
2022/08/18 05:19:03;;;;;;;42.17;37.00;;;;;;;19.82;73.19;99970.88;5067800;28;20048;-48
2022/08/18 05:21:32;;;;;;;42.90;38.30;;;;;;;19.88;72.89;99971.31;5076645;28;20052;-48
2022/08/18 05:24:01;;;;;;;42.30;37.80;;;;;;;20.01;72.57;99978.31;5085549;28;20044;-49
2022/08/18 05:26:30;;;;;;;39.53;35.37;;;;;;;20.15;72.17;99977.59;5068207;28;20441;-49
2022/08/18 05:28:58;;;;;;;40.55;36.15;;;;;;;20.20;72.17;99976.41;5084483;28;20049;-50
2022/08/18 05:31:28;;;;;;;39.70;35.60;;;;;;;20.40;71.54;99974.13;5072443;28;20052;-47
2022/08/18 05:33:56;;;;;;;43.65;38.30;;;;;;;20.51;71.10;99986.31;5071979;28;20060;-48
2022/08/18 05:36:42;;;;;;;44.53;39.78;;;;;;;20.60;70.36;99988.84;5071391;28;20512;-47
2022/08/18 05:39:25;;;;;;;47.03;41.80;;;;;;;20.39;70.60;99992.31;5088894;28;20482;-47
2022/08/18 05:41:58;;;;;;;47.55;40.45;;;;;;;20.08;72.43;99988.84;5071524;28;20412;-49
2022/08/18 05:44:29;;;;;;;43.75;38.75;;;;;;;20.18;71.91;99988.13;5071219;28;20059;-48
2022/08/18 05:47:06;;;;;;;38.92;34.72;;;;;;;20.37;71.54;99983.41;5075004;28;20058;-48
2022/08/18 05:49:36;;;;;;;39.58;35.38;;;;;;;20.65;70.70;99989.28;5069129;28;20060;-48
2022/08/18 05:52:06;;;;;;;40.35;36.05;;;;;;;20.84;69.85;99987.38;5064100;28;20524;-49
2022/08/18 05:57:31;;;;;;;40.38;36.10;;;;;;;21.18;68.57;99990.75;5084717;28;20059;-50
2022/08/18 05:59:59;;;;;;;38.35;34.40;;;;;;;21.28;68.18;100003.34;5084384;28;20428;-51
2022/08/18 06:02:32;;;;;;;37.70;33.80;;;;;;;21.43;67.70;100005.03;5073732;28;20069;-48
2022/08/18 06:05:05;;;;;;;36.35;32.53;;;;;;;21.54;67.37;100012.75;5076324;28;20052;-47
2022/08/18 06:07:36;;;;;;;38.22;34.30;;;;;;;21.52;67.19;100009.53;5072330;28;20056;-65
2022/08/18 06:10:06;;;;;;;42.83;38.40;;;;;;;21.52;66.63;100009.53;5075394;28;20060;-65
2022/08/18 06:12:39;;;;;;;39.20;35.20;;;;;;;21.56;66.75;100007.50;5073237;28;20152;-65
2022/08/18 06:15:17;;;;;;;40.80;36.40;;;;;;;21.60;66.50;100014.81;5074697;28;20056;-65
2022/08/18 06:18:14;;;;;;;44.60;39.80;;;;;;;21.36;67.20;100016.31;5088850;28;20051;-65
2022/08/18 06:21:08;;;;;;;45.28;38.47;;;;;;;21.34;67.72;100015.91;5087479;28;20060;-65
2022/08/18 06:23:42;;;;;;;48.25;40.75;;;;;;;21.30;68.33;100023.59;5074817;28;20051;-65
2022/08/18 06:26:17;;;;;;;43.10;37.65;;;;;;;21.29;68.65;100028.44;5074934;28;20056;-65
2022/08/18 06:28:56;;;;;;;41.35;36.80;;;;;;;21.45;68.26;100025.28;5074573;28;20106;-66
2022/08/18 06:31:29;;;;;;;;;;;;;;;21.44;68.57;100035.00;5079533;28;20405;-65
2022/08/18 06:34:08;;;;;;;47.55;38.75;;;;;;;21.46;68.37;100032.59;5074602;28;19920;-66
2022/08/18 06:36:44;;;;;;;44.35;38.42;;;;;;;21.55;68.34;100034.25;5074127;28;20433;-66
2022/08/18 06:39:20;;;;;;;41.72;36.10;;;;;;;21.68;68.30;100041.16;5082272;28;20434;-66
2022/08/18 06:41:49;;;;;;;46.88;38.05;;;;;;;21.73;68.10;100040.75;5085922;28;20056;-66
2022/08/18 06:44:23;;;;;;;47.00;37.30;;;;;;;21.82;67.97;100041.19;5091596;28;20048;-65
2022/08/18 06:46:56;;;;;;;47.40;37.28;;;;;;;21.80;67.98;100040.78;5087145;28;20089;-66
2022/08/18 06:49:38;;;;;;;47.22;36.50;;;;;;;21.83;67.46;100042.78;5074903;28;20060;-66
2022/08/18 06:52:19;;;;;;;42.92;34.08;;;;;;;21.83;67.26;100047.66;5074453;28;20048;-66
2022/08/18 06:54:47;;;;;;;53.90;40.33;;;;;;;21.67;67.81;100046.00;5054281;28;20053;-65
2022/08/18 06:57:24;;;;;;;45.72;33.60;;;;;;;21.76;67.11;100044.81;5076573;28;20381;-66
2022/08/18 06:59:59;;;;;;;44.45;34.60;;;;;;;21.86;66.75;100042.00;5089386;28;20056;-66
2022/08/18 07:02:42;;;;;;;45.47;33.47;;;;;;;21.86;66.93;100042.00;5081509;28;20044;-67
2022/08/18 07:05:19;;;;;;;41.80;33.40;;;;;;;21.98;66.64;100040.00;5072664;28;20044;-66
2022/08/18 07:08:15;;;;;;;41.88;31.45;;;;;;;22.08;66.36;100034.31;5063161;28;20048;-66
2022/08/18 07:10:44;;;;;;;41.65;31.15;;;;;;;22.08;66.10;100039.19;5074433;28;20056;-66
2022/08/18 07:13:22;;;;;;;45.75;32.70;;;;;;;22.14;65.55;100037.56;5076184;28;20056;-66
2022/08/18 07:15:51;;;;;;;46.00;32.60;;;;;;;22.22;65.52;100036.38;5074056;28;20048;-67
2022/08/18 07:18:24;;;;;;;48.75;34.00;;;;;;;22.28;65.16;100029.09;5073855;28;20433;-66
2022/08/18 07:20:54;;;;;;;43.38;31.83;;;;;;;22.37;65.02;100031.53;5073849;28;20516;-66
2022/08/18 07:23:26;;;;;;;47.03;35.45;;;;;;;22.30;65.45;100031.56;5079626;28;20044;-66
2022/08/18 07:26:02;;;;;;;46.85;33.85;;;;;;;22.25;64.96;100024.22;5073373;28;20059;-66
2022/08/18 07:28:31;;;;;;;45.25;33.38;;;;;;;22.43;64.74;100020.59;5073725;28;20044;-66
2022/08/18 07:31:36;;;;;;;46.80;33.80;;;;;;;22.34;64.43;100023.81;5073846;28;20056;-66
2022/08/18 07:34:08;;;;;;;45.00;32.25;;;;;;;22.44;64.60;100025.03;5067243;28;20052;-66
2022/08/18 07:36:42;;;;;;;42.42;30.85;;;;;;;22.55;64.15;100025.03;5073951;28;20059;-67
2022/08/18 07:39:17;;;;;;;46.88;33.25;;;;;;;22.51;64.27;100022.22;5073786;28;20055;-67
2022/08/18 07:41:50;;;;;;;39.38;31.10;;;;;;;22.69;63.88;100017.28;5074459;28;20051;-68
2022/08/18 07:44:24;;;;;;;38.58;29.38;;;;;;;22.86;63.14;100023.34;5081416;28;20049;-66
2022/08/18 07:46:59;;;;;;;42.00;31.85;;;;;;;22.99;62.63;100021.69;5073534;28;20052;-66
2022/08/18 07:49:34;;;;;;;41.22;30.67;;;;;;;23.13;62.15;100023.69;5072822;28;20055;-66
2022/08/18 07:52:05;;;;;;;42.45;31.17;;;;;;;23.22;61.91;100026.09;5075008;28;20048;-66
2022/08/18 07:54:44;;;;;;;38.70;29.63;;;;;;;23.22;61.73;100026.09;5081737;28;20053;-66
2022/08/18 07:57:19;;;;;;;39.13;30.38;;;;;;;23.32;61.66;100019.56;5073078;28;20061;-67
2022/08/18 07:59:54;;;;;;;42.35;31.92;;;;;;;23.36;61.50;100031.72;5072865;28;20060;-66
2022/08/18 08:02:35;;;;;;;40.35;30.52;;;;;;;23.33;60.97;100037.41;5078973;28;20059;-67
2022/08/18 08:05:11;;;;;;;42.10;31.15;;;;;;;23.08;62.07;100036.31;5080081;28;20071;-66
2022/08/18 08:07:45;;;;;;;37.42;29.60;;;;;;;23.15;61.68;100028.97;5073206;28;20048;-64
2022/08/18 08:10:34;;;;;;;45.28;32.55;;;;;;;23.25;61.44;100022.44;5073263;28;20045;-66
2022/08/18 08:13:12;;;;;;;39.45;30.60;;;;;;;23.39;61.25;100022.41;5082197;28;20055;-66
2022/08/18 08:15:53;;;;;;;41.05;30.98;;;;;;;23.58;60.56;100015.38;5076059;28;20057;-64
2022/08/18 08:18:28;;;;;;;40.03;31.25;;;;;;;23.64;60.27;100030.75;5072784;28;20064;-66
2022/08/18 08:20:58;;;;;;;44.75;32.00;;;;;;;23.69;59.89;100043.75;5072461;28;20485;-67
2022/08/18 08:23:35;;;;;;;47.72;34.22;;;;;;;23.64;60.33;100047.03;5083779;28;20059;-66
2022/08/18 08:26:24;;;;;;;45.00;34.85;;;;;;;23.80;60.31;100041.69;5081742;28;20409;-66
2022/08/18 08:29:03;;;;;;;45.58;32.47;;;;;;;23.92;59.51;100046.09;5089331;28;20400;-66
2022/08/18 08:31:38;;;;;;;48.70;35.78;;;;;;;23.98;59.29;100050.13;5074976;28;20048;-66
2022/08/18 08:34:12;;;;;;;49.20;37.08;;;;;;;24.03;59.18;100041.13;5072826;28;20378;-67
2022/08/18 08:36:43;;;;;;;44.75;33.85;;;;;;;23.88;59.23;100051.78;5076026;28;20059;-66
2022/08/18 08:39:18;;;;;;;49.22;35.85;;;;;;;23.95;59.34;100052.97;5092799;28;20048;-66
2022/08/18 08:41:50;;;;;;;53.88;37.47;;;;;;;23.90;59.50;100057.06;5075228;28;20075;-66
2022/08/18 08:44:24;;;;;;;48.10;35.17;;;;;;;23.89;59.74;100053.41;5072313;28;20059;-66
2022/08/18 08:46:56;;;;;;;47.95;36.47;;;;;;;23.94;59.28;100054.19;5077606;28;20058;-66
2022/08/18 08:49:33;;;;;;;57.47;39.13;;;;;;;23.81;59.45;100051.84;5092745;28;20059;-66
2022/08/18 08:52:05;;;;;;;50.05;35.40;;;;;;;23.91;59.72;100050.94;5075872;28;20048;-66
2022/08/18 08:54:43;;;;;;;56.08;38.25;;;;;;;23.88;59.54;100051.78;5072617;28;20067;-66
2022/08/18 08:57:13;;;;;;;51.58;36.00;;;;;;;23.84;59.78;100064.41;5079021;28;20056;-66
2022/08/18 08:59:42;;;;;;;58.40;40.53;;;;;;;23.73;59.65;100067.31;5092780;28;20409;-66
2022/08/18 09:02:31;;;;;;;58.67;39.00;;;;;;;23.69;59.96;100067.31;5077064;28;20078;-66
2022/08/18 09:05:10;;;;;;;56.50;38.60;;;;;;;23.54;60.87;100073.47;5072219;28;20414;-66
2022/08/18 09:08:05;;;;;;;56.15;38.85;;;;;;;23.49;60.47;100069.81;5080448;28;20048;-66
2022/08/18 09:10:52;;;;;;;55.38;39.10;;;;;;;23.49;60.74;100069.81;5092719;28;20052;-66
2022/08/18 09:13:41;;;;;;;53.35;36.72;;;;;;;23.52;61.07;100059.69;5071947;28;20401;-65
2022/08/18 09:16:21;;;;;;;57.05;40.83;;;;;;;23.53;61.10;100069.03;5072055;28;20485;-67
2022/08/18 09:19:04;;;;;;;52.47;37.72;;;;;;;23.64;60.70;100066.91;5051971;28;20060;-65
2022/08/18 09:21:43;;;;;;;53.58;37.28;;;;;;;23.72;60.48;100071.34;5055383;28;20056;-65
2022/08/18 09:24:22;;;;;;;46.50;35.30;;;;;;;23.77;60.05;100067.28;5071952;28;20052;-66
2022/08/18 09:26:52;;;;;;;;;;;;;;;23.89;59.88;100069.66;5073471;28;20049;-65
2022/08/18 09:29:25;;;;;;;55.15;38.53;;;;;;;24.00;59.52;100069.59;5052183;28;19921;-65
2022/08/18 09:32:33;;;;;;;49.25;36.63;;;;;;;24.04;59.48;100053.31;5055175;28;20048;-65
2022/08/18 09:35:13;;;;;;;46.97;35.08;;;;;;;24.14;60.02;100055.28;5051765;28;20124;-65
2022/08/18 09:41:30;;;;;;;50.70;36.85;;;;;;;24.27;58.84;100058.44;5089018;28;20056;-65
2022/08/18 09:43:35;;;;;;;46.83;33.33;;;;;;;24.54;58.33;100063.53;5090014;28;20044;-65
2022/08/18 09:46:04;;;;;;;48.60;36.65;;;;;;;24.65;57.74;100065.06;5095612;28;20059;-65
2022/08/18 09:48:35;;;;;;;45.28;33.53;;;;;;;24.73;57.42;100059.28;5082714;28;20063;-65
2022/08/18 09:51:34;;;;;;;46.05;33.85;;;;;;;24.82;57.13;100063.28;5075463;28;20053;-65
2022/08/18 09:54:19;;;;;;;48.50;35.63;;;;;;;24.75;57.06;100074.72;5074800;28;20048;-66
2022/08/18 09:57:16;;;;;;;45.90;35.55;;;;;;;24.39;57.92;100079.91;5083884;28;20051;-64
2022/08/18 10:00:18;;;;;;;46.80;35.15;;;;;;;24.33;58.19;100090.91;5096109;28;20043;-65
2022/08/18 10:03:23;;;;;;;45.70;36.00;;;;;;;24.52;57.88;100092.41;5069928;28;20090;-63
2022/08/18 10:06:05;;;;;;;42.65;33.67;;;;;;;24.74;57.06;100072.28;5074631;28;20048;-65
2022/08/18 10:08:51;;;;;;;43.63;32.88;;;;;;;25.14;55.97;100081.25;5074436;28;20057;-65
2022/08/18 10:11:31;;;;;;;41.75;32.97;;;;;;;25.36;55.61;100076.13;5075198;28;20052;-64
2022/08/18 10:14:16;;;;;;;40.92;33.28;;;;;;;25.85;54.20;100077.53;5076112;28;20060;-65
2022/08/18 10:16:52;;;;;;;42.47;33.03;;;;;;;26.31;53.20;100073.22;5075418;28;20059;-65
2022/08/18 10:19:30;;;;;;;38.00;31.45;;;;;;;26.72;52.00;100072.13;5074937;28;20059;-65
2022/08/18 10:22:05;;;;;;;39.53;31.85;;;;;;;26.97;51.11;100056.56;5075152;28;20057;-65
2022/08/18 10:24:36;;;;;;;41.80;31.95;;;;;;;27.26;50.24;100065.44;5080215;28;20067;-66
2022/08/18 10:27:08;;;;;;;40.72;32.30;;;;;;;27.30;49.90;100051.06;5074948;28;20412;-65
2022/08/18 10:29:57;;;;;;;39.15;29.58;;;;;;;27.13;49.79;100056.66;5074737;28;20056;-65
2022/08/18 10:32:37;;;;;;;;;;;;;;;27.09;50.16;100043.69;5066835;28;20052;-65
2022/08/18 10:35:25;;;;;;;38.58;31.35;;;;;;;27.00;49.74;100052.81;5073839;28;20364;-65
2022/08/18 10:37:53;;;;;;;;;;;;;;;27.21;49.21;100042.22;5074888;28;20056;-65
2022/08/18 10:40:22;;;;;;;32.85;28.52;;;;;;;27.38;48.99;100048.84;5074430;28;19920;-65
2022/08/18 10:42:57;;;;;;;36.67;31.55;;;;;;;27.30;48.57;100053.94;5080219;28;20060;-65
2022/08/18 10:45:28;;;;;;;34.75;29.17;;;;;;;27.33;48.38;100044.44;5093279;28;20377;-65
2022/08/18 10:48:05;;;;;;;35.85;29.88;;;;;;;27.39;48.65;100051.28;5093721;28;20481;-68
2022/08/18 10:50:39;;;;;;;35.20;28.70;;;;;;;27.46;48.55;100051.09;5079866;28;20405;-66
2022/08/18 10:53:15;;;;;;;33.78;28.63;;;;;;;27.48;48.17;100048.63;5076934;28;20074;-66
2022/08/18 10:55:49;;;;;;;34.97;30.50;;;;;;;27.54;47.88;100058.28;5079683;28;20048;-66
2022/08/18 10:58:40;;;;;;;34.30;30.17;;;;;;;27.12;48.81;100057.09;5073988;28;20085;-65
2022/08/18 11:01:42;;;;;;;32.80;27.58;;;;;;;26.79;49.53;100059.75;5073743;28;20361;-66
2022/08/18 11:04:26;;;;;;;31.60;27.45;;;;;;;26.90;49.23;100056.72;5086821;28;20047;-61
2022/08/18 11:07:03;;;;;;;33.22;29.27;;;;;;;26.76;49.50;100042.69;5054275;28;20055;-60
2022/08/18 11:09:31;;;;;;;36.72;30.35;;;;;;;26.53;49.57;100061.41;5090039;28;20437;-60
2022/08/18 11:12:01;;;;;;;29.20;25.92;;;;;;;26.52;49.65;100060.63;5074742;28;20056;-60
2022/08/18 11:15:01;;;;;;;31.27;26.77;;;;;;;26.51;49.16;100049.63;5075605;28;20051;-60
2022/08/18 11:17:39;;;;;;;30.23;26.90;;;;;;;26.62;49.08;100038.84;5092312;28;20052;-60
2022/08/18 11:20:09;;;;;;;29.10;25.83;;;;;;;26.85;48.43;100040.06;5090520;28;20050;-60
2022/08/18 11:22:37;;;;;;;30.73;25.75;;;;;;;27.13;48.64;100025.22;5074199;28;20063;-60
2022/08/18 11:25:22;;;;;;;27.40;23.50;;;;;;;26.87;47.00;100024.09;5079251;28;20059;-59
2022/08/18 11:27:49;;;;;;;27.25;23.92;;;;;;;26.81;47.88;100027.88;5073995;28;20055;-60
2022/08/18 11:30:19;;;;;;;26.70;23.92;;;;;;;26.94;47.33;100017.41;5073815;28;20064;-66
2022/08/18 11:32:50;;;;;;;25.77;23.05;;;;;;;27.53;46.53;100016.63;5077323;28;20390;-66
2022/08/18 11:35:21;;;;;;;24.77;22.02;;;;;;;28.13;45.41;100019.34;5086709;28;20134;-66
2022/08/18 11:37:53;;;;;;;25.52;22.67;;;;;;;28.52;44.98;100025.38;5073219;28;20053;-66
2022/08/18 11:40:35;;;;;;;29.27;26.25;;;;;;;28.43;43.83;100019.44;5073566;28;20378;-65
2022/08/18 11:43:06;;;;;;;27.77;24.83;;;;;;;28.48;43.66;100010.31;5084514;28;20122;-65
2022/08/18 11:45:51;;;;;;;28.88;25.85;;;;;;;28.53;43.42;100006.94;5093967;28;20051;-65
2022/08/18 11:48:23;;;;;;;24.45;21.88;;;;;;;29.11;42.46;100007.00;5093202;28;20070;-65
2022/08/18 11:51:01;;;;;;;27.95;24.88;;;;;;;29.51;41.62;100012.38;5092079;28;20056;-65
2022/08/18 11:53:42;;;;;;;24.25;21.77;;;;;;;29.73;41.61;100008.84;5083067;28;20487;-65
2022/08/18 11:56:23;;;;;;;24.67;22.13;;;;;;;29.91;40.94;100009.09;5091235;28;20059;-64